sensor_id;sensor_type;location;lat;lon;timestamp;P1;durP1;ratioP1;P2;durP2;ratioP2
19257;SDS011;9763;48.780;9.212;2022-08-19T00:00:04;7.70;;;7.10;;
19257;SDS011;9763;48.780;9.212;2022-08-19T00:03:31;7.50;;;6.90;;
19257;SDS011;9763;48.780;9.212;2022-08-19T00:06:54;7.50;;;6.90;;
19257;SDS011;9763;48.780;9.212;2022-08-19T00:10:21;7.37;;;6.77;;
19257;SDS011;9763;48.780;9.212;2022-08-19T00:13:45;6.60;;;6.07;;
19257;SDS011;9763;48.780;9.212;2022-08-19T00:17:09;6.63;;;6.13;;
19257;SDS011;9763;48.780;9.212;2022-08-19T00:20:34;6.57;;;6.00;;
19257;SDS011;9763;48.780;9.212;2022-08-19T00:23:58;7.07;;;6.47;;
19257;SDS011;9763;48.780;9.212;2022-08-19T00:27:23;8.13;;;7.43;;
19257;SDS011;9763;48.780;9.212;2022-08-19T00:30:47;6.57;;;6.00;;
19257;SDS011;9763;48.780;9.212;2022-08-19T00:34:13;6.67;;;6.17;;
19257;SDS011;9763;48.780;9.212;2022-08-19T00:37:37;8.23;;;7.43;;
19257;SDS011;9763;48.780;9.212;2022-08-19T00:41:05;8.40;;;7.50;;
19257;SDS011;9763;48.780;9.212;2022-08-19T00:44:31;7.97;;;7.27;;
19257;SDS011;9763;48.780;9.212;2022-08-19T00:47:55;7.40;;;6.80;;
19257;SDS011;9763;48.780;9.212;2022-08-19T00:51:18;7.20;;;6.60;;
19257;SDS011;9763;48.780;9.212;2022-08-19T00:54:43;7.00;;;6.40;;
19257;SDS011;9763;48.780;9.212;2022-08-19T00:58:14;7.90;;;7.20;;
19257;SDS011;9763;48.780;9.212;2022-08-19T01:01:48;7.47;;;6.77;;
19257;SDS011;9763;48.780;9.212;2022-08-19T01:05:14;7.10;;;6.50;;
19257;SDS011;9763;48.780;9.212;2022-08-19T01:08:42;7.20;;;6.60;;
19257;SDS011;9763;48.780;9.212;2022-08-19T01:12:06;7.97;;;7.27;;
19257;SDS011;9763;48.780;9.212;2022-08-19T01:15:32;7.67;;;7.07;;
19257;SDS011;9763;48.780;9.212;2022-08-19T01:19:04;7.80;;;7.00;;
19257;SDS011;9763;48.780;9.212;2022-08-19T01:22:52;7.50;;;6.90;;
19257;SDS011;9763;48.780;9.212;2022-08-19T01:26:20;8.03;;;7.33;;
19257;SDS011;9763;48.780;9.212;2022-08-19T01:29:47;7.83;;;7.13;;
19257;SDS011;9763;48.780;9.212;2022-08-19T01:33:11;8.00;;;7.30;;
19257;SDS011;9763;48.780;9.212;2022-08-19T01:36:35;7.57;;;6.90;;
19257;SDS011;9763;48.780;9.212;2022-08-19T01:40:05;8.20;;;7.50;;
19257;SDS011;9763;48.780;9.212;2022-08-19T01:43:30;7.60;;;6.90;;
19257;SDS011;9763;48.780;9.212;2022-08-19T01:46:54;7.33;;;6.70;;
19257;SDS011;9763;48.780;9.212;2022-08-19T01:50:18;7.57;;;6.97;;
19257;SDS011;9763;48.780;9.212;2022-08-19T01:53:42;7.50;;;6.90;;
19257;SDS011;9763;48.780;9.212;2022-08-19T01:57:11;7.40;;;6.80;;
19257;SDS011;9763;48.780;9.212;2022-08-19T02:04:35;9.23;;;8.50;;
19257;SDS011;9763;48.780;9.212;2022-08-19T02:08:00;8.20;;;7.50;;
19257;SDS011;9763;48.780;9.212;2022-08-19T02:11:25;8.07;;;7.37;;
19257;SDS011;9763;48.780;9.212;2022-08-19T02:14:54;8.60;;;7.90;;
19257;SDS011;9763;48.780;9.212;2022-08-19T02:18:18;8.50;;;7.80;;
19257;SDS011;9763;48.780;9.212;2022-08-19T02:21:48;8.67;;;7.87;;
19257;SDS011;9763;48.780;9.212;2022-08-19T02:25:12;7.80;;;7.20;;
19257;SDS011;9763;48.780;9.212;2022-08-19T02:28:37;7.40;;;6.80;;
19257;SDS011;9763;48.780;9.212;2022-08-19T02:32:04;9.20;;;7.13;;
19257;SDS011;9763;48.780;9.212;2022-08-19T02:35:28;9.77;;;8.87;;
19257;SDS011;9763;48.780;9.212;2022-08-19T02:38:52;10.10;;;9.20;;
19257;SDS011;9763;48.780;9.212;2022-08-19T02:42:16;9.30;;;8.40;;
19257;SDS011;9763;48.780;9.212;2022-08-19T02:45:39;9.07;;;8.33;;
19257;SDS011;9763;48.780;9.212;2022-08-19T02:49:05;9.37;;;8.57;;
19257;SDS011;9763;48.780;9.212;2022-08-19T02:52:31;10.93;;;9.93;;
19257;SDS011;9763;48.780;9.212;2022-08-19T02:55:55;9.30;;;8.50;;
19257;SDS011;9763;48.780;9.212;2022-08-19T02:59:19;9.47;;;8.60;;
19257;SDS011;9763;48.780;9.212;2022-08-19T03:02:43;9.20;;;8.40;;
19257;SDS011;9763;48.780;9.212;2022-08-19T03:06:11;8.20;;;7.50;;
19257;SDS011;9763;48.780;9.212;2022-08-19T03:09:37;9.40;;;8.50;;
19257;SDS011;9763;48.780;9.212;2022-08-19T03:13:01;9.43;;;8.63;;
19257;SDS011;9763;48.780;9.212;2022-08-19T03:16:26;11.93;;;10.83;;
19257;SDS011;9763;48.780;9.212;2022-08-19T03:19:55;14.63;;;12.27;;
19257;SDS011;9763;48.780;9.212;2022-08-19T03:23:22;10.27;;;9.37;;
19257;SDS011;9763;48.780;9.212;2022-08-19T03:26:47;10.90;;;9.90;;
19257;SDS011;9763;48.780;9.212;2022-08-19T03:30:14;11.80;;;10.80;;
19257;SDS011;9763;48.780;9.212;2022-08-19T03:33:44;9.30;;;8.50;;
19257;SDS011;9763;48.780;9.212;2022-08-19T03:37:11;9.47;;;8.57;;
19257;SDS011;9763;48.780;9.212;2022-08-19T03:40:37;10.67;;;9.73;;
19257;SDS011;9763;48.780;9.212;2022-08-19T03:44:00;10.20;;;9.20;;
19257;SDS011;9763;48.780;9.212;2022-08-19T03:47:33;9.67;;;8.87;;
19257;SDS011;9763;48.780;9.212;2022-08-19T03:50:56;11.50;;;10.40;;
19257;SDS011;9763;48.780;9.212;2022-08-19T03:54:22;10.50;;;9.70;;
19257;SDS011;9763;48.780;9.212;2022-08-19T03:57:49;11.53;;;10.33;;
19257;SDS011;9763;48.780;9.212;2022-08-19T04:01:20;9.37;;;8.57;;
19257;SDS011;9763;48.780;9.212;2022-08-19T04:04:55;11.10;;;10.00;;
19257;SDS011;9763;48.780;9.212;2022-08-19T04:08:19;9.97;;;9.07;;
19257;SDS011;9763;48.780;9.212;2022-08-19T04:11:44;11.63;;;10.63;;
19257;SDS011;9763;48.780;9.212;2022-08-19T04:15:16;10.50;;;9.60;;
19257;SDS011;9763;48.780;9.212;2022-08-19T04:18:41;9.77;;;8.77;;
19257;SDS011;9763;48.780;9.212;2022-08-19T04:22:05;10.20;;;9.30;;
19257;SDS011;9763;48.780;9.212;2022-08-19T04:25:34;11.30;;;10.30;;
19257;SDS011;9763;48.780;9.212;2022-08-19T04:29:00;11.43;;;10.33;;
19257;SDS011;9763;48.780;9.212;2022-08-19T04:32:34;10.80;;;9.87;;
19257;SDS011;9763;48.780;9.212;2022-08-19T04:35:58;12.70;;;11.60;;
19257;SDS011;9763;48.780;9.212;2022-08-19T04:39:22;11.13;;;10.13;;
19257;SDS011;9763;48.780;9.212;2022-08-19T04:43:09;10.60;;;9.70;;
19257;SDS011;9763;48.780;9.212;2022-08-19T04:46:34;10.70;;;9.70;;
19257;SDS011;9763;48.780;9.212;2022-08-19T04:50:12;10.07;;;9.17;;
19257;SDS011;9763;48.780;9.212;2022-08-19T04:53:40;9.90;;;9.07;;
19257;SDS011;9763;48.780;9.212;2022-08-19T04:57:06;11.50;;;10.50;;
19257;SDS011;9763;48.780;9.212;2022-08-19T05:00:31;13.33;;;12.13;;
19257;SDS011;9763;48.780;9.212;2022-08-19T05:03:58;13.07;;;11.87;;
19257;SDS011;9763;48.780;9.212;2022-08-19T05:07:25;12.60;;;11.60;;
19257;SDS011;9763;48.780;9.212;2022-08-19T05:10:50;14.23;;;12.83;;
19257;SDS011;9763;48.780;9.212;2022-08-19T05:14:14;11.97;;;10.87;;
19257;SDS011;9763;48.780;9.212;2022-08-19T05:17:38;11.90;;;10.90;;
19257;SDS011;9763;48.780;9.212;2022-08-19T05:21:22;13.13;;;11.03;;
19257;SDS011;9763;48.780;9.212;2022-08-19T05:25:07;11.47;;;10.37;;
19257;SDS011;9763;48.780;9.212;2022-08-19T05:28:34;13.57;;;12.40;;
19257;SDS011;9763;48.780;9.212;2022-08-19T05:31:58;10.30;;;9.40;;
19257;SDS011;9763;48.780;9.212;2022-08-19T05:35:21;9.60;;;8.80;;
19257;SDS011;9763;48.780;9.212;2022-08-19T05:38:45;11.20;;;10.20;;
19257;SDS011;9763;48.780;9.212;2022-08-19T05:42:12;11.67;;;10.67;;
19257;SDS011;9763;48.780;9.212;2022-08-19T05:45:39;10.50;;;9.60;;
19257;SDS011;9763;48.780;9.212;2022-08-19T05:49:04;9.57;;;8.77;;
19257;SDS011;9763;48.780;9.212;2022-08-19T05:52:29;12.27;;;11.20;;
19257;SDS011;9763;48.780;9.212;2022-08-19T05:55:54;11.10;;;10.10;;
19257;SDS011;9763;48.780;9.212;2022-08-19T05:59:20;10.70;;;9.70;;
19257;SDS011;9763;48.780;9.212;2022-08-19T06:02:45;10.83;;;10.00;;
19257;SDS011;9763;48.780;9.212;2022-08-19T06:06:10;12.10;;;10.73;;
19257;SDS011;9763;48.780;9.212;2022-08-19T06:09:36;11.93;;;10.93;;
19257;SDS011;9763;48.780;9.212;2022-08-19T06:13:00;10.30;;;9.30;;
19257;SDS011;9763;48.780;9.212;2022-08-19T06:16:25;9.40;;;8.70;;
19257;SDS011;9763;48.780;9.212;2022-08-19T06:19:50;12.90;;;11.70;;
19257;SDS011;9763;48.780;9.212;2022-08-19T06:23:13;10.90;;;9.97;;
19257;SDS011;9763;48.780;9.212;2022-08-19T06:26:40;14.53;;;11.33;;
19257;SDS011;9763;48.780;9.212;2022-08-19T06:30:11;12.07;;;9.33;;
19257;SDS011;9763;48.780;9.212;2022-08-19T06:33:36;9.97;;;9.10;;
19257;SDS011;9763;48.780;9.212;2022-08-19T06:37:02;10.90;;;9.90;;
19257;SDS011;9763;48.780;9.212;2022-08-19T06:40:27;10.07;;;9.20;;
19257;SDS011;9763;48.780;9.212;2022-08-19T06:43:50;10.10;;;9.20;;
19257;SDS011;9763;48.780;9.212;2022-08-19T06:47:17;9.80;;;9.00;;
19257;SDS011;9763;48.780;9.212;2022-08-19T06:50:51;12.77;;;11.67;;
19257;SDS011;9763;48.780;9.212;2022-08-19T06:54:14;11.77;;;10.67;;
19257;SDS011;9763;48.780;9.212;2022-08-19T06:57:40;11.07;;;10.07;;
19257;SDS011;9763;48.780;9.212;2022-08-19T07:01:07;12.30;;;11.20;;
19257;SDS011;9763;48.780;9.212;2022-08-19T07:04:32;10.80;;;9.90;;
19257;SDS011;9763;48.780;9.212;2022-08-19T07:07:59;10.83;;;9.93;;
19257;SDS011;9763;48.780;9.212;2022-08-19T07:11:26;10.30;;;9.40;;
19257;SDS011;9763;48.780;9.212;2022-08-19T07:14:54;11.10;;;10.20;;
19257;SDS011;9763;48.780;9.212;2022-08-19T07:18:22;10.33;;;9.50;;
19257;SDS011;9763;48.780;9.212;2022-08-19T07:21:48;11.50;;;10.50;;
19257;SDS011;9763;48.780;9.212;2022-08-19T07:25:16;10.17;;;9.27;;
19257;SDS011;9763;48.780;9.212;2022-08-19T07:28:40;9.20;;;8.43;;
19257;SDS011;9763;48.780;9.212;2022-08-19T07:32:12;9.80;;;9.00;;
19257;SDS011;9763;48.780;9.212;2022-08-19T07:35:35;10.50;;;9.53;;
19257;SDS011;9763;48.780;9.212;2022-08-19T07:39:00;9.97;;;9.07;;
19257;SDS011;9763;48.780;9.212;2022-08-19T07:42:29;9.20;;;8.47;;
19257;SDS011;9763;48.780;9.212;2022-08-19T07:45:53;9.80;;;9.00;;
19257;SDS011;9763;48.780;9.212;2022-08-19T07:49:18;9.40;;;8.60;;
19257;SDS011;9763;48.780;9.212;2022-08-19T07:52:43;10.10;;;9.30;;
19257;SDS011;9763;48.780;9.212;2022-08-19T07:56:10;9.17;;;8.37;;
19257;SDS011;9763;48.780;9.212;2022-08-19T07:59:37;10.87;;;8.27;;
19257;SDS011;9763;48.780;9.212;2022-08-19T08:03:00;10.33;;;9.00;;
19257;SDS011;9763;48.780;9.212;2022-08-19T08:06:24;9.50;;;8.70;;
19257;SDS011;9763;48.780;9.212;2022-08-19T08:10:06;8.50;;;7.73;;
19257;SDS011;9763;48.780;9.212;2022-08-19T08:13:41;10.33;;;9.33;;
19257;SDS011;9763;48.780;9.212;2022-08-19T08:17:07;8.50;;;7.80;;
19257;SDS011;9763;48.780;9.212;2022-08-19T08:20:32;9.00;;;8.27;;
19257;SDS011;9763;48.780;9.212;2022-08-19T08:23:56;10.13;;;9.20;;
19257;SDS011;9763;48.780;9.212;2022-08-19T08:27:24;7.97;;;7.27;;
19257;SDS011;9763;48.780;9.212;2022-08-19T08:30:53;8.13;;;7.47;;
19257;SDS011;9763;48.780;9.212;2022-08-19T08:34:18;8.90;;;8.07;;
19257;SDS011;9763;48.780;9.212;2022-08-19T08:37:43;9.97;;;9.00;;
19257;SDS011;9763;48.780;9.212;2022-08-19T08:41:09;10.73;;;9.73;;
19257;SDS011;9763;48.780;9.212;2022-08-19T08:44:51;7.97;;;7.37;;
19257;SDS011;9763;48.780;9.212;2022-08-19T08:48:22;10.03;;;9.07;;
19257;SDS011;9763;48.780;9.212;2022-08-19T08:52:00;8.53;;;7.77;;
19257;SDS011;9763;48.780;9.212;2022-08-19T08:55:30;9.37;;;8.57;;
19257;SDS011;9763;48.780;9.212;2022-08-19T08:58:58;10.23;;;9.30;;
19257;SDS011;9763;48.780;9.212;2022-08-19T09:02:29;9.33;;;8.60;;
19257;SDS011;9763;48.780;9.212;2022-08-19T09:05:56;10.10;;;9.20;;
19257;SDS011;9763;48.780;9.212;2022-08-19T09:09:26;9.70;;;8.90;;
19257;SDS011;9763;48.780;9.212;2022-08-19T09:12:58;8.73;;;8.03;;
19257;SDS011;9763;48.780;9.212;2022-08-19T09:16:35;8.33;;;7.73;;
19257;SDS011;9763;48.780;9.212;2022-08-19T09:20:03;7.37;;;6.83;;
19257;SDS011;9763;48.780;9.212;2022-08-19T09:23:41;7.87;;;7.17;;
19257;SDS011;9763;48.780;9.212;2022-08-19T09:27:06;7.70;;;7.00;;
19257;SDS011;9763;48.780;9.212;2022-08-19T09:30:40;8.13;;;7.43;;
19257;SDS011;9763;48.780;9.212;2022-08-19T09:34:04;10.03;;;9.03;;
19257;SDS011;9763;48.780;9.212;2022-08-19T09:37:41;8.27;;;7.50;;
19257;SDS011;9763;48.780;9.212;2022-08-19T09:41:06;7.70;;;7.10;;
19257;SDS011;9763;48.780;9.212;2022-08-19T09:44:34;7.90;;;7.23;;
19257;SDS011;9763;48.780;9.212;2022-08-19T09:47:57;8.40;;;7.70;;
19257;SDS011;9763;48.780;9.212;2022-08-19T09:51:23;7.83;;;7.13;;
19257;SDS011;9763;48.780;9.212;2022-08-19T09:54:51;7.10;;;6.50;;
19257;SDS011;9763;48.780;9.212;2022-08-19T09:58:15;7.10;;;6.50;;
19257;SDS011;9763;48.780;9.212;2022-08-19T10:01:46;6.30;;;5.70;;
19257;SDS011;9763;48.780;9.212;2022-08-19T10:05:10;6.90;;;6.30;;
19257;SDS011;9763;48.780;9.212;2022-08-19T10:08:51;7.60;;;7.00;;
19257;SDS011;9763;48.780;9.212;2022-08-19T10:12:15;8.00;;;7.30;;
19257;SDS011;9763;48.780;9.212;2022-08-19T10:15:40;8.67;;;7.93;;
19257;SDS011;9763;48.780;9.212;2022-08-19T10:19:11;7.27;;;6.67;;
19257;SDS011;9763;48.780;9.212;2022-08-19T10:22:34;7.53;;;6.83;;
19257;SDS011;9763;48.780;9.212;2022-08-19T10:25:59;6.00;;;5.50;;
19257;SDS011;9763;48.780;9.212;2022-08-19T10:29:22;7.50;;;6.90;;
19257;SDS011;9763;48.780;9.212;2022-08-19T10:32:53;6.57;;;6.07;;
19257;SDS011;9763;48.780;9.212;2022-08-19T10:36:19;6.20;;;5.73;;
19257;SDS011;9763;48.780;9.212;2022-08-19T10:39:46;5.83;;;5.43;;
19257;SDS011;9763;48.780;9.212;2022-08-19T10:43:10;6.80;;;6.20;;
19257;SDS011;9763;48.780;9.212;2022-08-19T10:46:35;6.43;;;5.93;;
19257;SDS011;9763;48.780;9.212;2022-08-19T10:50:09;6.03;;;5.57;;
19257;SDS011;9763;48.780;9.212;2022-08-19T10:53:52;6.63;;;6.10;;
19257;SDS011;9763;48.780;9.212;2022-08-19T10:57:16;6.20;;;5.80;;
19257;SDS011;9763;48.780;9.212;2022-08-19T11:00:39;6.83;;;6.30;;
19257;SDS011;9763;48.780;9.212;2022-08-19T11:04:04;5.77;;;5.27;;
19257;SDS011;9763;48.780;9.212;2022-08-19T11:07:30;5.70;;;5.20;;
19257;SDS011;9763;48.780;9.212;2022-08-19T11:10:55;5.23;;;4.83;;
19257;SDS011;9763;48.780;9.212;2022-08-19T11:14:24;5.00;;;4.60;;
19257;SDS011;9763;48.780;9.212;2022-08-19T11:17:54;4.70;;;4.30;;
19257;SDS011;9763;48.780;9.212;2022-08-19T11:21:18;6.13;;;5.13;;
19257;SDS011;9763;48.780;9.212;2022-08-19T11:24:45;6.23;;;5.47;;
19257;SDS011;9763;48.780;9.212;2022-08-19T11:28:10;6.23;;;4.97;;
19257;SDS011;9763;48.780;9.212;2022-08-19T11:31:34;5.73;;;5.20;;
19257;SDS011;9763;48.780;9.212;2022-08-19T11:35:00;4.80;;;4.50;;
19257;SDS011;9763;48.780;9.212;2022-08-19T11:38:23;5.87;;;5.37;;
19257;SDS011;9763;48.780;9.212;2022-08-19T11:41:47;6.10;;;5.60;;
19257;SDS011;9763;48.780;9.212;2022-08-19T11:45:13;4.53;;;4.13;;
19257;SDS011;9763;48.780;9.212;2022-08-19T11:48:37;4.37;;;4.00;;
19257;SDS011;9763;48.780;9.212;2022-08-19T11:52:01;5.17;;;4.73;;
19257;SDS011;9763;48.780;9.212;2022-08-19T11:55:25;4.77;;;4.40;;
19257;SDS011;9763;48.780;9.212;2022-08-19T11:58:49;5.27;;;4.80;;
19257;SDS011;9763;48.780;9.212;2022-08-19T12:02:16;5.93;;;5.43;;
19257;SDS011;9763;48.780;9.212;2022-08-19T12:05:40;5.17;;;4.67;;
19257;SDS011;9763;48.780;9.212;2022-08-19T12:09:05;4.87;;;4.50;;
19257;SDS011;9763;48.780;9.212;2022-08-19T12:12:33;4.80;;;4.40;;
19257;SDS011;9763;48.780;9.212;2022-08-19T12:15:57;4.43;;;4.03;;
19257;SDS011;9763;48.780;9.212;2022-08-19T12:19:22;5.53;;;4.20;;
19257;SDS011;9763;48.780;9.212;2022-08-19T12:22:46;6.10;;;4.90;;
19257;SDS011;9763;48.780;9.212;2022-08-19T12:26:10;4.70;;;4.40;;
19257;SDS011;9763;48.780;9.212;2022-08-19T12:29:34;5.27;;;4.77;;
19257;SDS011;9763;48.780;9.212;2022-08-19T12:32:58;4.50;;;4.20;;
19257;SDS011;9763;48.780;9.212;2022-08-19T12:36:23;5.00;;;4.50;;
19257;SDS011;9763;48.780;9.212;2022-08-19T12:39:47;4.80;;;4.40;;
19257;SDS011;9763;48.780;9.212;2022-08-19T12:43:11;5.53;;;5.10;;
19257;SDS011;9763;48.780;9.212;2022-08-19T12:46:35;5.70;;;4.20;;
19257;SDS011;9763;48.780;9.212;2022-08-19T12:49:59;4.50;;;4.10;;
19257;SDS011;9763;48.780;9.212;2022-08-19T12:53:28;6.20;;;5.60;;
19257;SDS011;9763;48.780;9.212;2022-08-19T12:56:52;4.27;;;3.87;;
19257;SDS011;9763;48.780;9.212;2022-08-19T13:00:16;5.00;;;4.60;;
19257;SDS011;9763;48.780;9.212;2022-08-19T13:03:44;3.93;;;3.63;;
19257;SDS011;9763;48.780;9.212;2022-08-19T13:07:11;4.90;;;4.50;;
19257;SDS011;9763;48.780;9.212;2022-08-19T13:10:36;4.90;;;4.50;;
19257;SDS011;9763;48.780;9.212;2022-08-19T13:14:01;5.83;;;5.20;;
19257;SDS011;9763;48.780;9.212;2022-08-19T13:17:26;5.67;;;5.17;;
19257;SDS011;9763;48.780;9.212;2022-08-19T13:20:49;6.37;;;5.77;;
19257;SDS011;9763;48.780;9.212;2022-08-19T13:24:14;5.43;;;5.03;;
19257;SDS011;9763;48.780;9.212;2022-08-19T13:27:39;6.63;;;6.13;;
19257;SDS011;9763;48.780;9.212;2022-08-19T13:31:03;7.43;;;6.80;;
19257;SDS011;9763;48.780;9.212;2022-08-19T13:34:44;7.00;;;6.40;;
19257;SDS011;9763;48.780;9.212;2022-08-19T13:38:08;8.00;;;7.30;;
19257;SDS011;9763;48.780;9.212;2022-08-19T13:41:33;8.00;;;7.33;;
19257;SDS011;9763;48.780;9.212;2022-08-19T13:44:58;8.63;;;7.90;;
19257;SDS011;9763;48.780;9.212;2022-08-19T13:48:22;9.70;;;8.90;;
19257;SDS011;9763;48.780;9.212;2022-08-19T13:51:48;10.50;;;9.60;;
19257;SDS011;9763;48.780;9.212;2022-08-19T13:55:11;9.10;;;8.30;;
19257;SDS011;9763;48.780;9.212;2022-08-19T13:58:45;7.80;;;7.10;;
19257;SDS011;9763;48.780;9.212;2022-08-19T14:02:10;9.40;;;8.60;;
19257;SDS011;9763;48.780;9.212;2022-08-19T14:05:34;8.47;;;7.80;;
19257;SDS011;9763;48.780;9.212;2022-08-19T14:08:58;7.47;;;6.77;;
19257;SDS011;9763;48.780;9.212;2022-08-19T14:12:23;8.13;;;7.37;;
19257;SDS011;9763;48.780;9.212;2022-08-19T14:15:50;7.67;;;6.97;;
19257;SDS011;9763;48.780;9.212;2022-08-19T14:19:16;8.07;;;7.40;;
19257;SDS011;9763;48.780;9.212;2022-08-19T14:22:41;8.10;;;7.40;;
19257;SDS011;9763;48.780;9.212;2022-08-19T14:26:07;8.43;;;7.73;;
19257;SDS011;9763;48.780;9.212;2022-08-19T14:29:33;7.60;;;6.90;;
19257;SDS011;9763;48.780;9.212;2022-08-19T14:32:57;7.57;;;6.90;;
19257;SDS011;9763;48.780;9.212;2022-08-19T14:36:24;7.60;;;7.00;;
19257;SDS011;9763;48.780;9.212;2022-08-19T14:39:48;7.03;;;6.53;;
19257;SDS011;9763;48.780;9.212;2022-08-19T14:43:12;7.23;;;6.53;;
19257;SDS011;9763;48.780;9.212;2022-08-19T14:46:38;7.30;;;6.73;;
19257;SDS011;9763;48.780;9.212;2022-08-19T14:50:10;7.23;;;6.67;;
19257;SDS011;9763;48.780;9.212;2022-08-19T14:53:40;6.37;;;5.87;;
19257;SDS011;9763;48.780;9.212;2022-08-19T14:57:05;7.03;;;6.37;;
19257;SDS011;9763;48.780;9.212;2022-08-19T15:00:28;6.50;;;6.00;;
19257;SDS011;9763;48.780;9.212;2022-08-19T15:03:52;6.37;;;5.87;;
19257;SDS011;9763;48.780;9.212;2022-08-19T15:07:16;6.30;;;5.80;;
19257;SDS011;9763;48.780;9.212;2022-08-19T15:10:41;6.20;;;5.60;;
19257;SDS011;9763;48.780;9.212;2022-08-19T15:14:05;5.33;;;4.93;;
19257;SDS011;9763;48.780;9.212;2022-08-19T15:17:28;6.30;;;5.80;;
19257;SDS011;9763;48.780;9.212;2022-08-19T15:21:12;5.63;;;5.23;;
19257;SDS011;9763;48.780;9.212;2022-08-19T15:24:47;5.47;;;5.07;;
19257;SDS011;9763;48.780;9.212;2022-08-19T15:28:12;5.87;;;5.47;;
19257;SDS011;9763;48.780;9.212;2022-08-19T15:31:37;6.30;;;5.53;;
19257;SDS011;9763;48.780;9.212;2022-08-19T15:35:01;5.97;;;5.47;;
19257;SDS011;9763;48.780;9.212;2022-08-19T15:38:26;6.40;;;5.90;;
19257;SDS011;9763;48.780;9.212;2022-08-19T15:41:49;7.80;;;7.10;;
19257;SDS011;9763;48.780;9.212;2022-08-19T15:45:15;6.60;;;6.10;;
19257;SDS011;9763;48.780;9.212;2022-08-19T15:48:40;7.20;;;6.70;;
19257;SDS011;9763;48.780;9.212;2022-08-19T15:52:09;6.13;;;5.63;;
19257;SDS011;9763;48.780;9.212;2022-08-19T15:55:33;5.80;;;5.40;;
19257;SDS011;9763;48.780;9.212;2022-08-19T15:59:04;6.83;;;6.23;;
19257;SDS011;9763;48.780;9.212;2022-08-19T16:02:46;6.27;;;5.77;;
19257;SDS011;9763;48.780;9.212;2022-08-19T16:06:28;5.77;;;5.27;;
19257;SDS011;9763;48.780;9.212;2022-08-19T16:09:53;5.60;;;5.20;;
19257;SDS011;9763;48.780;9.212;2022-08-19T16:13:16;6.27;;;5.77;;
19257;SDS011;9763;48.780;9.212;2022-08-19T16:16:40;5.67;;;5.27;;
19257;SDS011;9763;48.780;9.212;2022-08-19T16:20:09;6.70;;;6.10;;
19257;SDS011;9763;48.780;9.212;2022-08-19T16:23:33;6.00;;;5.50;;
19257;SDS011;9763;48.780;9.212;2022-08-19T16:26:57;6.97;;;6.47;;
19257;SDS011;9763;48.780;9.212;2022-08-19T16:30:22;6.93;;;6.37;;
19257;SDS011;9763;48.780;9.212;2022-08-19T16:33:45;6.73;;;6.23;;
19257;SDS011;9763;48.780;9.212;2022-08-19T16:37:10;6.50;;;5.90;;
19257;SDS011;9763;48.780;9.212;2022-08-19T16:40:35;7.43;;;6.83;;
19257;SDS011;9763;48.780;9.212;2022-08-19T16:43:58;8.23;;;7.63;;
19257;SDS011;9763;48.780;9.212;2022-08-19T16:47:22;7.70;;;7.10;;
19257;SDS011;9763;48.780;9.212;2022-08-19T16:50:45;7.93;;;7.20;;
19257;SDS011;9763;48.780;9.212;2022-08-19T16:54:11;6.80;;;6.30;;
19257;SDS011;9763;48.780;9.212;2022-08-19T16:57:35;6.80;;;6.27;;
19257;SDS011;9763;48.780;9.212;2022-08-19T17:00:59;6.20;;;5.70;;
19257;SDS011;9763;48.780;9.212;2022-08-19T17:04:26;6.57;;;6.07;;
19257;SDS011;9763;48.780;9.212;2022-08-19T17:07:49;6.27;;;5.67;;
19257;SDS011;9763;48.780;9.212;2022-08-19T17:11:14;7.60;;;6.90;;
19257;SDS011;9763;48.780;9.212;2022-08-19T17:14:40;5.83;;;5.43;;
19257;SDS011;9763;48.780;9.212;2022-08-19T17:18:06;7.57;;;6.87;;
19257;SDS011;9763;48.780;9.212;2022-08-19T17:21:33;6.30;;;5.70;;
19257;SDS011;9763;48.780;9.212;2022-08-19T17:25:00;5.80;;;5.30;;
19257;SDS011;9763;48.780;9.212;2022-08-19T17:28:25;5.90;;;5.40;;
19257;SDS011;9763;48.780;9.212;2022-08-19T17:31:51;5.47;;;4.97;;
19257;SDS011;9763;48.780;9.212;2022-08-19T17:35:15;5.80;;;5.30;;
19257;SDS011;9763;48.780;9.212;2022-08-19T17:38:45;6.17;;;5.43;;
19257;SDS011;9763;48.780;9.212;2022-08-19T17:42:08;6.20;;;5.70;;
19257;SDS011;9763;48.780;9.212;2022-08-19T17:45:33;5.30;;;4.90;;
19257;SDS011;9763;48.780;9.212;2022-08-19T17:48:57;6.60;;;6.10;;
19257;SDS011;9763;48.780;9.212;2022-08-19T17:52:21;6.00;;;5.60;;
19257;SDS011;9763;48.780;9.212;2022-08-19T17:55:45;5.20;;;4.70;;
19257;SDS011;9763;48.780;9.212;2022-08-19T17:59:09;4.87;;;4.53;;
19257;SDS011;9763;48.780;9.212;2022-08-19T18:02:43;5.70;;;5.20;;
19257;SDS011;9763;48.780;9.212;2022-08-19T18:06:12;5.67;;;5.17;;
19257;SDS011;9763;48.780;9.212;2022-08-19T18:09:37;6.30;;;5.70;;
19257;SDS011;9763;48.780;9.212;2022-08-19T18:13:10;5.27;;;4.87;;
19257;SDS011;9763;48.780;9.212;2022-08-19T18:16:38;4.87;;;4.50;;
19257;SDS011;9763;48.780;9.212;2022-08-19T18:20:04;6.33;;;5.77;;
19257;SDS011;9763;48.780;9.212;2022-08-19T18:23:33;7.10;;;6.60;;
19257;SDS011;9763;48.780;9.212;2022-08-19T18:27:06;5.83;;;5.40;;
19257;SDS011;9763;48.780;9.212;2022-08-19T18:30:30;5.90;;;5.50;;
19257;SDS011;9763;48.780;9.212;2022-08-19T18:33:54;6.23;;;5.40;;
19257;SDS011;9763;48.780;9.212;2022-08-19T18:37:19;4.77;;;4.47;;
19257;SDS011;9763;48.780;9.212;2022-08-19T18:40:43;4.87;;;4.47;;
19257;SDS011;9763;48.780;9.212;2022-08-19T18:44:24;4.47;;;4.17;;
19257;SDS011;9763;48.780;9.212;2022-08-19T18:48:06;5.67;;;5.27;;
19257;SDS011;9763;48.780;9.212;2022-08-19T18:51:48;5.15;;;4.75;;
19257;SDS011;9763;48.780;9.212;2022-08-19T18:55:14;4.80;;;4.40;;
19257;SDS011;9763;48.780;9.212;2022-08-19T18:58:39;5.60;;;5.20;;
19257;SDS011;9763;48.780;9.212;2022-08-19T19:02:03;4.80;;;4.40;;
19257;SDS011;9763;48.780;9.212;2022-08-19T19:05:27;5.27;;;4.87;;
19257;SDS011;9763;48.780;9.212;2022-08-19T19:08:51;5.43;;;5.03;;
19257;SDS011;9763;48.780;9.212;2022-08-19T19:12:17;5.00;;;4.60;;
19257;SDS011;9763;48.780;9.212;2022-08-19T19:15:42;6.17;;;5.60;;
19257;SDS011;9763;48.780;9.212;2022-08-19T19:19:06;5.10;;;4.70;;
19257;SDS011;9763;48.780;9.212;2022-08-19T19:22:33;5.73;;;5.33;;
19257;SDS011;9763;48.780;9.212;2022-08-19T19:25:57;6.43;;;5.93;;
19257;SDS011;9763;48.780;9.212;2022-08-19T19:29:23;5.30;;;4.90;;
19257;SDS011;9763;48.780;9.212;2022-08-19T19:32:48;5.87;;;5.40;;
19257;SDS011;9763;48.780;9.212;2022-08-19T19:36:12;5.87;;;5.37;;
19257;SDS011;9763;48.780;9.212;2022-08-19T19:39:35;6.23;;;5.73;;
19257;SDS011;9763;48.780;9.212;2022-08-19T19:43:07;5.60;;;5.20;;
19257;SDS011;9763;48.780;9.212;2022-08-19T19:46:32;5.63;;;5.13;;
19257;SDS011;9763;48.780;9.212;2022-08-19T19:49:56;5.43;;;5.03;;
19257;SDS011;9763;48.780;9.212;2022-08-19T19:53:36;5.70;;;5.20;;
19257;SDS011;9763;48.780;9.212;2022-08-19T19:57:00;6.10;;;5.60;;
19257;SDS011;9763;48.780;9.212;2022-08-19T20:00:24;5.27;;;4.87;;
19257;SDS011;9763;48.780;9.212;2022-08-19T20:03:49;4.97;;;4.57;;
19257;SDS011;9763;48.780;9.212;2022-08-19T20:07:12;5.40;;;5.00;;
19257;SDS011;9763;48.780;9.212;2022-08-19T20:10:36;5.20;;;4.80;;
19257;SDS011;9763;48.780;9.212;2022-08-19T20:14:02;4.43;;;4.13;;
19257;SDS011;9763;48.780;9.212;2022-08-19T20:17:28;4.27;;;3.97;;
19257;SDS011;9763;48.780;9.212;2022-08-19T20:20:54;4.43;;;4.10;;
19257;SDS011;9763;48.780;9.212;2022-08-19T20:24:19;4.90;;;4.60;;
19257;SDS011;9763;48.780;9.212;2022-08-19T20:27:46;5.00;;;4.40;;
19257;SDS011;9763;48.780;9.212;2022-08-19T20:31:10;5.10;;;4.70;;
19257;SDS011;9763;48.780;9.212;2022-08-19T20:34:34;5.40;;;4.90;;
19257;SDS011;9763;48.780;9.212;2022-08-19T20:37:59;4.60;;;4.30;;
19257;SDS011;9763;48.780;9.212;2022-08-19T20:41:23;5.03;;;4.67;;
19257;SDS011;9763;48.780;9.212;2022-08-19T20:44:47;4.73;;;4.43;;
19257;SDS011;9763;48.780;9.212;2022-08-19T20:48:11;4.57;;;4.20;;
19257;SDS011;9763;48.780;9.212;2022-08-19T20:51:34;4.53;;;4.23;;
19257;SDS011;9763;48.780;9.212;2022-08-19T20:55:00;4.53;;;4.20;;
19257;SDS011;9763;48.780;9.212;2022-08-19T20:58:24;3.40;;;3.10;;
19257;SDS011;9763;48.780;9.212;2022-08-19T21:01:48;3.03;;;2.83;;